Strumenti personali
Tu sei qui: Portale Dati rete

Dati disponibili

Clicca sulla provincia, potrai visualizzare le stazioni presenti nel suo territorio

Belluno, Padova, Rovigo, Treviso, Venezia, Verona, Vicenza

 

 

Provincia di BellunoProvincia di VicenzaProvincia di TrevisoProvincia di VeneziaProvincia di PadovaProvincia di VeronaProvincia di Rovigo

Dipartimento Regionale per la Sicurezza del Territorio

Servizio Centro Meteorologico di Teolo

Stazione Bardolino - Calmasino
Provincia VERONA

Valori giornalieri nel periodo 23/02/2014 - 23/04/2014

La tabella è stata elaborata con i dati trasmessi in automatico dalle centraline, dopo la validazione possono subire parziali modifiche.
Data (gg/mm/aa) Temp. aria
a 2m
(°C)
Pioggia
(mm)
Umidità rel.
a 2m
(%)
Radiazione globale
(MJ/m2)
Pressione
(hPa)
Vento a 10 m Bagnatura fogliare
(% di tempo)
  med     min     max   tot min max tot med Sfilato (km/g) Raffica Direz. preval tot
ora m/s
23/02/14 8.2 4.3 13.0 0.0 34 99 13.650 1002 236.5 03:07 9.6 NNE 8
24/02/14 8.5 5.5 13.1 0.0 39 82 14.221 1002 269.5 >> >> NNE 0
25/02/14 8.7 4.8 13.2 0.0 43 76 13.123 999 194.8 06:43 7.6 NNE 0
26/02/14 8.6 6.0 11.3 2.2 55 91 4.060 999 157.7 20:20 7.6 NNE 14
27/02/14 8.5 6.5 12.1 0.4 58 98 10.500 999 176.2 07:50 7.5 NNE 13
28/02/14 7.7 3.6 10.7 0.0 61 100 8.278 990 192.2 21:34 9.8 E 41
01/03/14 8.1 5.1 11.6 4.6 52 88 2.805 979 466.0 18:13 17.2 NNE 38
02/03/14 7.1 5.4 9.8 8.8 76 100 4.581 980 158.8 04:06 9.3 N 64
03/03/14 8.9 5.1 12.5 1.4 53 98 9.803 977 197.1 18:41 7.1 E 21
04/03/14 9.3 7.3 12.1 0.2 58 88 4.676 977 124.4 09:49 6.5 NE 7
05/03/14 10.8 6.7 15.1 0.2 30 91 15.326 990 205.1 23:51 16.1 NNE 0
06/03/14 13.5 10.6 17.8 0.0 24 57 14.384 999 496.4 08:03 16.7 NNE 0
07/03/14 11.7 8.6 16.3 0.0 37 71 16.160 1003 255.8 08:54 9.1 NNE 0
08/03/14 11.2 6.9 15.7 0.0 44 76 15.696 1007 195.5 04:56 8.4 NNE 0
09/03/14 11.3 7.9 15.7 0.0 40 73 15.928 1009 211.6 04:55 8.9 NNE 0
10/03/14 10.4 5.8 15.4 0.0 34 74 15.275 1003 209.0 11:44 6.8 NNE 0
11/03/14 10.0 6.3 14.7 0.0 36 72 15.144 1005 170.3 23:39 5.3 NNE 0
12/03/14 11.7 7.5 17.3 0.0 24 64 17.397 1009 255.8 08:45 8.7 NNE 0
13/03/14 12.6 8.8 17.9 0.0 32 60 17.190 1008 204.7 03:16 7.8 NNE 0
14/03/14 13.2 8.9 18.2 0.0 36 64 16.882 1005 198.7 02:12 7.6 NNE 0
15/03/14 12.7 7.5 17.9 0.0 44 93 13.838 996 180.7 06:30 6.9 N 5
16/03/14 11.6 5.7 18.3 0.0 42 100 16.217 995 104.2 10:50 5.2 OSO 45
17/03/14 11.1 5.0 16.7 0.0 65 100 17.240 998 142.6 13:32 7.0 NNE 60
18/03/14 11.7 5.6 17.5 0.0 61 100 14.943 998 93.1 12:25 4.5 NNE 62
19/03/14 12.5 8.6 17.5 0.0 62 100 16.116 999 141.7 12:50 5.4 ESE 63
20/03/14 13.2 8.1 18.9 0.0 45 100 16.951 1005 147.8 07:22 6.7 NNE 27
21/03/14 14.2 9.1 19.3 0.0 45 89 16.813 1000 201.0 21:47 6.9 NNE 12
22/03/14 12.5 10.5 16.1 9.8 62 100 7.719 992 132.5 17:08 8.0 NNE 67
23/03/14 10.3 6.0 15.2 19.8 57 100 7.380 981 387.2 23:46 18.8 NNE 70
24/03/14 8.5 4.8 13.0 2.6 41 91 15.275 986 386.3 02:25 22.1 N 12
25/03/14 8.1 4.2 11.1 0.4 42 89 13.004 989 314.5 03:03 13.2 NNE 2
26/03/14 9.7 5.5 13.5 0.0 36 81 16.317 990 293.0 13:09 10.7 E 0
27/03/14 11.6 8.6 15.5 0.2 36 70 10.964 989 270.3 08:44 12.7 NNE 1
28/03/14 13.4 9.1 17.8 0.0 30 66 20.372 995 261.8 03:56 9.6 N 0
29/03/14 14.4 10.4 19.6 0.0 31 60 20.441 1002 272.4 06:41 9.5 NNE 0
30/03/14 14.6 10.6 19.9 0.0 37 68 20.302 998 240.6 03:02 8.8 NNE 0
31/03/14 14.7 10.3 20.9 0.0 34 72 20.259 994 188.1 08:19 7.2 N 0
01/04/14 14.0 8.9 19.7 0.0 43 89 19.863 994 147.5 15:18 6.4 SO 0
02/04/14 13.3 8.4 18.5 0.0 54 96 17.974 993 113.8 13:08 6.2 OSO 21
03/04/14 12.8 9.9 16.5 0.0 62 94 8.761 991 87.1 05:45 3.9 NNE 2
04/04/14 13.6 8.3 17.7 0.2 46 100 8.316 987 306.2 09:30 13.4 E 32
05/04/14 14.7 12.4 16.8 0.2 54 82 6.615 991 260.1 00:17 12.1 NNE 4
06/04/14 16.8 12.5 21.6 0.0 43 76 20.372 996 213.6 06:10 8.8 NNE 0
07/04/14 17.8 13.3 23.1 0.0 34 73 20.773 999 195.0 05:42 6.8 NNE 0
08/04/14 17.3 12.3 22.0 0.0 45 95 14.943 996 196.0 20:34 7.8 NNE 4
09/04/14 15.9 10.4 21.3 0.0 33 91 21.884 998 237.0 15:08 10.6 E 5
10/04/14 14.5 9.6 20.1 0.0 34 81 21.426 997 210.7 07:26 6.3 NNE 0
11/04/14 14.6 9.5 19.2 0.0 45 85 21.846 997 299.3 11:36 9.2 ESE 1
12/04/14 14.8 11.8 18.6 0.0 43 82 16.619 996 148.0 18:20 6.7 ESE 0
13/04/14 13.9 9.8 19.1 0.0 44 88 15.112 997 115.8 18:27 4.3 NNE 2
14/04/14 16.0 9.5 22.4 0.0 42 93 21.589 993 238.6 15:30 9.5 OSO 13
15/04/14 13.4 9.6 17.5 0.0 19 92 21.533 994 301.0 22:34 14.0 SE 18
16/04/14 12.5 6.6 17.1 0.2 15 58 25.436 1000 330.4 07:24 14.5 NNE 0
17/04/14 13.4 10.0 18.1 0.0 16 47 25.323 998 323.8 02:52 13.9 NNE 0
18/04/14 12.9 6.7 17.7 0.2 27 74 13.311 989 197.8 21:23 9.5 NNE 6
19/04/14 12.8 8.9 16.6 1.4 49 95 14.516 986 448.8 10:30 16.5 NNE 33
20/04/14 14.3 9.3 19.9 0.0 38 97 20.648 987 245.0 17:58 8.7 ESE 31
21/04/14 12.2 11.2 14.4 5.8 61 95 3.358 987 257.2 15:14 8.4 NNE 90
22/04/14 15.1 10.3 20.3 0.0 45 90 24.903 993 216.5 07:32 6.9 NNE 43
23/04/14 15.7 12.0 20.6 11.0 50 94 15.922 996 258.2 05:31 8.9 NNE 34
Se la casella è vuota il sensore non è attivo.
Se la casella contiene ">>" il valore non è disponibile.
Si segnala che con precipitazione nevosa il pluviometro potrebbe non rilevare o sottostimare il fenomeno.
L'orario indicato nella raffica è solare.
La direzione prevalente del vento è in settori e rappresenta la provenienza del vento, il settore è ampio 22.5 gradi con asse nella direzione indicata.

Oltre alla gestione operativa delle stazioni, che comprende le operazioni di acquisizione, validazione e archiviazione dati, tale settore si occupa della predisposizione di una serie di prodotti e servizi, finalizzati all'utenza esterna, rappresentati dai dati e servizi di tipo standard il cui costo è gia quantificato (listino prodotti tariffati) o prodotti e servizi particolari, legati a specifiche esigenze dell'utenza, il cui prezzo viene determinato di volta in volta al momento della richiesta dati.

Azioni sul documento

ultima modifica 01/07/2011 15:07